sensor_id;sensor_type;location;lat;lon;timestamp;P1;durP1;ratioP1;P2;durP2;ratioP2
23236;SDS011;11787;52.018;8.570;2023-08-07T02:08:24;7.43;;;3.20;;
23236;SDS011;11787;52.018;8.570;2023-08-07T02:10:49;6.47;;;3.00;;
23236;SDS011;11787;52.018;8.570;2023-08-07T02:13:15;6.03;;;2.63;;
23236;SDS011;11787;52.018;8.570;2023-08-07T02:15:40;6.55;;;2.58;;
23236;SDS011;11787;52.018;8.570;2023-08-07T02:18:06;8.00;;;2.92;;
23236;SDS011;11787;52.018;8.570;2023-08-07T02:20:32;4.75;;;2.67;;
23236;SDS011;11787;52.018;8.570;2023-08-07T02:22:57;10.45;;;3.72;;
23236;SDS011;11787;52.018;8.570;2023-08-07T02:25:23;6.85;;;3.03;;
23236;SDS011;11787;52.018;8.570;2023-08-07T02:27:48;7.03;;;3.17;;
23236;SDS011;11787;52.018;8.570;2023-08-07T02:30:14;5.20;;;3.05;;
23236;SDS011;11787;52.018;8.570;2023-08-07T02:32:39;7.88;;;3.50;;
23236;SDS011;11787;52.018;8.570;2023-08-07T02:35:08;7.15;;;2.97;;
23236;SDS011;11787;52.018;8.570;2023-08-07T02:37:33;6.03;;;3.13;;
23236;SDS011;11787;52.018;8.570;2023-08-07T02:39:59;8.10;;;3.60;;
23236;SDS011;11787;52.018;8.570;2023-08-07T02:42:24;8.35;;;3.15;;
23236;SDS011;11787;52.018;8.570;2023-08-07T02:44:50;6.88;;;3.35;;
23236;SDS011;11787;52.018;8.570;2023-08-07T02:47:16;5.32;;;3.25;;
23236;SDS011;11787;52.018;8.570;2023-08-07T02:49:41;6.28;;;3.80;;
23236;SDS011;11787;52.018;8.570;2023-08-07T02:52:07;6.85;;;3.03;;
23236;SDS011;11787;52.018;8.570;2023-08-07T02:54:32;4.35;;;3.03;;
23236;SDS011;11787;52.018;8.570;2023-08-07T02:56:58;5.60;;;2.75;;
23236;SDS011;11787;52.018;8.570;2023-08-07T02:59:23;7.50;;;2.90;;
23236;SDS011;11787;52.018;8.570;2023-08-07T03:01:49;7.40;;;3.08;;
23236;SDS011;11787;52.018;8.570;2023-08-07T03:04:15;7.10;;;3.65;;
23236;SDS011;11787;52.018;8.570;2023-08-07T03:06:40;6.55;;;3.25;;
23236;SDS011;11787;52.018;8.570;2023-08-07T03:09:06;7.90;;;3.90;;
23236;SDS011;11787;52.018;8.570;2023-08-07T03:11:31;9.60;;;3.15;;
23236;SDS011;11787;52.018;8.570;2023-08-07T03:13:57;8.85;;;3.88;;
23236;SDS011;11787;52.018;8.570;2023-08-07T03:16:23;7.63;;;4.28;;
23236;SDS011;11787;52.018;8.570;2023-08-07T03:18:48;6.32;;;3.92;;
23236;SDS011;11787;52.018;8.570;2023-08-07T03:21:14;5.32;;;4.28;;
23236;SDS011;11787;52.018;8.570;2023-08-07T03:23:40;8.48;;;4.15;;
23236;SDS011;11787;52.018;8.570;2023-08-07T03:26:06;10.02;;;4.18;;
23236;SDS011;11787;52.018;8.570;2023-08-07T03:28:34;8.25;;;4.57;;
23236;SDS011;11787;52.018;8.570;2023-08-07T03:31:00;4.38;;;3.80;;
23236;SDS011;11787;52.018;8.570;2023-08-07T03:33:26;8.48;;;4.75;;
23236;SDS011;11787;52.018;8.570;2023-08-07T03:35:52;7.03;;;5.07;;
23236;SDS011;11787;52.018;8.570;2023-08-07T03:38:17;7.63;;;4.07;;
23236;SDS011;11787;52.018;8.570;2023-08-07T03:40:43;8.57;;;5.15;;
23236;SDS011;11787;52.018;8.570;2023-08-07T03:43:09;6.88;;;4.10;;
23236;SDS011;11787;52.018;8.570;2023-08-07T03:45:34;6.85;;;4.72;;
23236;SDS011;11787;52.018;8.570;2023-08-07T03:48:00;5.45;;;4.95;;
23236;SDS011;11787;52.018;8.570;2023-08-07T03:50:26;7.38;;;4.53;;
23236;SDS011;11787;52.018;8.570;2023-08-07T03:52:51;8.95;;;5.45;;
23236;SDS011;11787;52.018;8.570;2023-08-07T03:55:17;7.38;;;4.90;;
23236;SDS011;11787;52.018;8.570;2023-08-07T03:57:43;10.05;;;5.25;;
23236;SDS011;11787;52.018;8.570;2023-08-07T04:00:09;10.07;;;5.38;;
23236;SDS011;11787;52.018;8.570;2023-08-07T04:02:35;8.25;;;5.63;;
23236;SDS011;11787;52.018;8.570;2023-08-07T04:05:00;8.23;;;5.55;;
23236;SDS011;11787;52.018;8.570;2023-08-07T04:07:26;9.07;;;5.25;;
23236;SDS011;11787;52.018;8.570;2023-08-07T04:09:51;10.10;;;5.93;;
23236;SDS011;11787;52.018;8.570;2023-08-07T04:12:17;8.13;;;5.22;;
23236;SDS011;11787;52.018;8.570;2023-08-07T04:14:43;6.65;;;5.45;;
23236;SDS011;11787;52.018;8.570;2023-08-07T04:17:08;9.32;;;5.47;;
23236;SDS011;11787;52.018;8.570;2023-08-07T04:19:34;9.18;;;5.18;;
23236;SDS011;11787;52.018;8.570;2023-08-07T04:21:59;13.48;;;6.28;;
23236;SDS011;11787;52.018;8.570;2023-08-07T04:24:25;8.65;;;6.05;;
23236;SDS011;11787;52.018;8.570;2023-08-07T04:26:50;7.25;;;5.10;;
23236;SDS011;11787;52.018;8.570;2023-08-07T04:29:16;10.90;;;5.28;;
23236;SDS011;11787;52.018;8.570;2023-08-07T04:31:42;7.07;;;5.03;;
23236;SDS011;11787;52.018;8.570;2023-08-07T04:34:07;5.88;;;4.90;;
23236;SDS011;11787;52.018;8.570;2023-08-07T04:36:33;8.10;;;5.13;;
23236;SDS011;11787;52.018;8.570;2023-08-07T04:38:59;6.47;;;4.22;;
23236;SDS011;11787;52.018;8.570;2023-08-07T04:41:24;7.32;;;4.35;;
23236;SDS011;11787;52.018;8.570;2023-08-07T04:43:50;5.53;;;4.50;;
23236;SDS011;11787;52.018;8.570;2023-08-07T04:46:15;5.88;;;4.38;;
23236;SDS011;11787;52.018;8.570;2023-08-07T04:48:41;6.90;;;4.05;;
23236;SDS011;11787;52.018;8.570;2023-08-07T04:51:06;6.95;;;4.50;;
23236;SDS011;11787;52.018;8.570;2023-08-07T04:53:32;4.55;;;3.58;;
23236;SDS011;11787;52.018;8.570;2023-08-07T04:56:02;6.38;;;4.00;;
23236;SDS011;11787;52.018;8.570;2023-08-07T04:58:28;5.15;;;3.50;;
23236;SDS011;11787;52.018;8.570;2023-08-07T05:00:56;4.82;;;3.80;;
23236;SDS011;11787;52.018;8.570;2023-08-07T05:03:22;5.50;;;3.60;;
23236;SDS011;11787;52.018;8.570;2023-08-07T05:05:49;5.90;;;3.58;;
23236;SDS011;11787;52.018;8.570;2023-08-07T05:08:14;7.88;;;3.53;;
23236;SDS011;11787;52.018;8.570;2023-08-07T05:10:41;5.05;;;3.35;;
23236;SDS011;11787;52.018;8.570;2023-08-07T05:13:06;4.38;;;3.25;;
23236;SDS011;11787;52.018;8.570;2023-08-07T05:15:32;4.40;;;3.25;;
23236;SDS011;11787;52.018;8.570;2023-08-07T05:17:58;7.03;;;3.45;;
23236;SDS011;11787;52.018;8.570;2023-08-07T05:20:23;4.30;;;3.05;;
23236;SDS011;11787;52.018;8.570;2023-08-07T05:22:49;5.82;;;2.95;;
23236;SDS011;11787;52.018;8.570;2023-08-07T05:25:15;3.75;;;3.05;;
23236;SDS011;11787;52.018;8.570;2023-08-07T05:27:44;4.78;;;2.80;;
23236;SDS011;11787;52.018;8.570;2023-08-07T05:30:11;4.10;;;2.83;;
23236;SDS011;11787;52.018;8.570;2023-08-07T05:32:37;9.60;;;3.00;;
23236;SDS011;11787;52.018;8.570;2023-08-07T05:35:06;3.72;;;2.72;;
23236;SDS011;11787;52.018;8.570;2023-08-07T05:37:33;6.25;;;3.35;;
23236;SDS011;11787;52.018;8.570;2023-08-07T05:39:59;5.45;;;2.85;;
23236;SDS011;11787;52.018;8.570;2023-08-07T05:42:24;5.13;;;2.85;;
23236;SDS011;11787;52.018;8.570;2023-08-07T05:44:50;3.95;;;2.30;;
23236;SDS011;11787;52.018;8.570;2023-08-07T05:47:16;5.82;;;2.40;;
23236;SDS011;11787;52.018;8.570;2023-08-07T05:49:41;6.97;;;2.80;;
23236;SDS011;11787;52.018;8.570;2023-08-07T05:52:07;5.07;;;2.92;;
23236;SDS011;11787;52.018;8.570;2023-08-07T05:54:33;3.25;;;2.35;;
23236;SDS011;11787;52.018;8.570;2023-08-07T05:56:59;7.78;;;2.60;;
23236;SDS011;11787;52.018;8.570;2023-08-07T05:59:24;5.10;;;2.42;;
23236;SDS011;11787;52.018;8.570;2023-08-07T06:01:50;5.78;;;2.28;;
23236;SDS011;11787;52.018;8.570;2023-08-07T06:04:16;3.28;;;1.90;;
23236;SDS011;11787;52.018;8.570;2023-08-07T06:06:42;4.32;;;1.83;;
23236;SDS011;11787;52.018;8.570;2023-08-07T06:09:07;5.00;;;1.85;;
23236;SDS011;11787;52.018;8.570;2023-08-07T06:11:33;3.33;;;1.98;;
23236;SDS011;11787;52.018;8.570;2023-08-07T06:13:59;4.82;;;1.55;;
23236;SDS011;11787;52.018;8.570;2023-08-07T06:16:25;6.18;;;1.95;;
23236;SDS011;11787;52.018;8.570;2023-08-07T06:18:51;4.38;;;1.67;;
23236;SDS011;11787;52.018;8.570;2023-08-07T06:21:16;5.25;;;1.70;;
23236;SDS011;11787;52.018;8.570;2023-08-07T06:23:42;4.70;;;1.60;;
23236;SDS011;11787;52.018;8.570;2023-08-07T06:26:07;4.32;;;1.35;;
23236;SDS011;11787;52.018;8.570;2023-08-07T06:28:34;3.47;;;1.42;;
23236;SDS011;11787;52.018;8.570;2023-08-07T06:31:07;3.05;;;1.23;;
23236;SDS011;11787;52.018;8.570;2023-08-07T06:33:34;3.40;;;1.30;;
23236;SDS011;11787;52.018;8.570;2023-08-07T06:36:00;5.00;;;1.60;;
23236;SDS011;11787;52.018;8.570;2023-08-07T06:38:29;4.45;;;1.35;;
23236;SDS011;11787;52.018;8.570;2023-08-07T06:40:55;4.53;;;1.85;;
23236;SDS011;11787;52.018;8.570;2023-08-07T06:43:21;3.00;;;1.27;;
23236;SDS011;11787;52.018;8.570;2023-08-07T06:45:50;5.05;;;1.50;;
23236;SDS011;11787;52.018;8.570;2023-08-07T06:48:17;3.55;;;1.70;;
23236;SDS011;11787;52.018;8.570;2023-08-07T06:50:43;3.88;;;1.38;;
23236;SDS011;11787;52.018;8.570;2023-08-07T06:55:34;5.85;;;1.63;;
23236;SDS011;11787;52.018;8.570;2023-08-07T06:58:00;6.15;;;1.48;;
23236;SDS011;11787;52.018;8.570;2023-08-07T07:00:25;6.47;;;1.45;;
23236;SDS011;11787;52.018;8.570;2023-08-07T07:02:51;4.20;;;1.33;;
23236;SDS011;11787;52.018;8.570;2023-08-07T07:05:17;3.17;;;1.17;;
23236;SDS011;11787;52.018;8.570;2023-08-07T07:07:43;3.78;;;1.20;;
23236;SDS011;11787;52.018;8.570;2023-08-07T07:10:09;5.47;;;1.65;;
23236;SDS011;11787;52.018;8.570;2023-08-07T07:12:35;2.58;;;1.60;;
23236;SDS011;11787;52.018;8.570;2023-08-07T07:15:01;2.75;;;1.25;;
23236;SDS011;11787;52.018;8.570;2023-08-07T07:17:27;2.80;;;0.95;;
23236;SDS011;11787;52.018;8.570;2023-08-07T07:19:53;3.97;;;1.10;;
23236;SDS011;11787;52.018;8.570;2023-08-07T07:22:18;2.42;;;1.10;;
23236;SDS011;11787;52.018;8.570;2023-08-07T07:24:44;4.85;;;1.40;;
23236;SDS011;11787;52.018;8.570;2023-08-07T07:27:09;2.40;;;1.17;;
23236;SDS011;11787;52.018;8.570;2023-08-07T07:29:35;3.63;;;1.17;;
23236;SDS011;11787;52.018;8.570;2023-08-07T07:32:01;4.13;;;1.48;;
23236;SDS011;11787;52.018;8.570;2023-08-07T07:34:26;2.97;;;1.30;;
23236;SDS011;11787;52.018;8.570;2023-08-07T07:36:52;2.78;;;1.08;;
23236;SDS011;11787;52.018;8.570;2023-08-07T07:39:19;2.15;;;1.23;;
23236;SDS011;11787;52.018;8.570;2023-08-07T07:41:44;4.88;;;1.40;;
23236;SDS011;11787;52.018;8.570;2023-08-07T07:44:10;3.28;;;1.10;;
23236;SDS011;11787;52.018;8.570;2023-08-07T07:46:36;3.38;;;1.90;;
23236;SDS011;11787;52.018;8.570;2023-08-07T07:49:01;5.03;;;1.60;;
23236;SDS011;11787;52.018;8.570;2023-08-07T07:51:28;4.50;;;1.70;;
23236;SDS011;11787;52.018;8.570;2023-08-07T07:53:54;5.15;;;2.00;;
23236;SDS011;11787;52.018;8.570;2023-08-07T07:56:19;5.85;;;1.88;;
23236;SDS011;11787;52.018;8.570;2023-08-07T07:58:45;5.80;;;2.25;;
23236;SDS011;11787;52.018;8.570;2023-08-07T08:01:11;6.63;;;2.28;;
23236;SDS011;11787;52.018;8.570;2023-08-07T08:03:36;5.03;;;1.73;;
23236;SDS011;11787;52.018;8.570;2023-08-07T08:06:02;5.28;;;1.60;;
23236;SDS011;11787;52.018;8.570;2023-08-07T08:08:28;5.50;;;1.77;;
23236;SDS011;11787;52.018;8.570;2023-08-07T08:10:54;5.07;;;1.85;;
23236;SDS011;11787;52.018;8.570;2023-08-07T08:13:19;2.65;;;1.05;;
23236;SDS011;11787;52.018;8.570;2023-08-07T08:15:45;4.88;;;1.70;;
23236;SDS011;11787;52.018;8.570;2023-08-07T08:18:11;3.22;;;1.48;;
23236;SDS011;11787;52.018;8.570;2023-08-07T08:20:37;3.33;;;1.38;;
23236;SDS011;11787;52.018;8.570;2023-08-07T08:23:03;7.15;;;2.40;;
23236;SDS011;11787;52.018;8.570;2023-08-07T08:25:30;5.45;;;1.75;;
23236;SDS011;11787;52.018;8.570;2023-08-07T08:27:57;6.68;;;2.35;;
23236;SDS011;11787;52.018;8.570;2023-08-07T08:30:23;8.52;;;2.58;;
23236;SDS011;11787;52.018;8.570;2023-08-07T08:32:48;3.95;;;1.73;;
23236;SDS011;11787;52.018;8.570;2023-08-07T08:35:14;3.85;;;1.83;;
23236;SDS011;11787;52.018;8.570;2023-08-07T08:37:40;4.38;;;2.13;;
23236;SDS011;11787;52.018;8.570;2023-08-07T08:40:06;5.77;;;2.27;;
23236;SDS011;11787;52.018;8.570;2023-08-07T08:42:33;7.60;;;2.47;;
23236;SDS011;11787;52.018;8.570;2023-08-07T08:44:59;4.05;;;1.80;;
23236;SDS011;11787;52.018;8.570;2023-08-07T08:47:27;5.30;;;1.83;;
23236;SDS011;11787;52.018;8.570;2023-08-07T08:52:31;6.72;;;2.55;;
23236;SDS011;11787;52.018;8.570;2023-08-07T08:54:57;5.45;;;2.15;;
23236;SDS011;11787;52.018;8.570;2023-08-07T08:57:26;6.18;;;2.47;;
23236;SDS011;11787;52.018;8.570;2023-08-07T08:59:53;5.63;;;2.17;;
23236;SDS011;11787;52.018;8.570;2023-08-07T09:02:21;5.60;;;1.90;;
23236;SDS011;11787;52.018;8.570;2023-08-07T09:04:47;8.00;;;2.28;;
23236;SDS011;11787;52.018;8.570;2023-08-07T09:09:40;4.85;;;2.35;;
23236;SDS011;11787;52.018;8.570;2023-08-07T09:12:19;4.70;;;1.98;;
23236;SDS011;11787;52.018;8.570;2023-08-07T09:14:47;4.70;;;1.80;;
23236;SDS011;11787;52.018;8.570;2023-08-07T09:17:17;5.28;;;1.92;;
23236;SDS011;11787;52.018;8.570;2023-08-07T09:19:44;5.50;;;1.90;;
23236;SDS011;11787;52.018;8.570;2023-08-07T09:22:09;6.97;;;2.03;;
23236;SDS011;11787;52.018;8.570;2023-08-07T09:24:35;6.13;;;2.22;;
23236;SDS011;11787;52.018;8.570;2023-08-07T09:27:01;4.07;;;1.88;;
23236;SDS011;11787;52.018;8.570;2023-08-07T09:29:27;6.53;;;1.95;;
23236;SDS011;11787;52.018;8.570;2023-08-07T09:31:54;8.80;;;2.08;;
23236;SDS011;11787;52.018;8.570;2023-08-07T09:34:20;6.32;;;2.30;;
23236;SDS011;11787;52.018;8.570;2023-08-07T09:36:46;7.57;;;2.30;;
23236;SDS011;11787;52.018;8.570;2023-08-07T09:39:11;7.22;;;1.98;;
23236;SDS011;11787;52.018;8.570;2023-08-07T09:41:37;7.10;;;2.05;;
23236;SDS011;11787;52.018;8.570;2023-08-07T09:44:09;4.28;;;1.95;;
23236;SDS011;11787;52.018;8.570;2023-08-07T09:46:44;6.43;;;1.90;;
23236;SDS011;11787;52.018;8.570;2023-08-07T09:49:10;3.85;;;1.60;;
23236;SDS011;11787;52.018;8.570;2023-08-07T09:51:42;5.47;;;1.70;;
23236;SDS011;11787;52.018;8.570;2023-08-07T09:54:08;5.93;;;1.40;;
23236;SDS011;11787;52.018;8.570;2023-08-07T09:56:37;4.53;;;1.50;;
23236;SDS011;11787;52.018;8.570;2023-08-07T09:59:05;3.97;;;1.40;;
23236;SDS011;11787;52.018;8.570;2023-08-07T10:01:31;4.75;;;1.20;;
23236;SDS011;11787;52.018;8.570;2023-08-07T10:03:57;5.60;;;1.65;;
23236;SDS011;11787;52.018;8.570;2023-08-07T10:06:23;5.82;;;1.38;;
23236;SDS011;11787;52.018;8.570;2023-08-07T10:08:49;5.60;;;1.70;;
23236;SDS011;11787;52.018;8.570;2023-08-07T11:19:41;1.85;;;0.90;;
23236;SDS011;11787;52.018;8.570;2023-08-07T11:22:07;5.30;;;1.50;;
23236;SDS011;11787;52.018;8.570;2023-08-07T11:24:33;5.55;;;1.60;;
23236;SDS011;11787;52.018;8.570;2023-08-07T11:26:58;5.95;;;1.95;;
23236;SDS011;11787;52.018;8.570;2023-08-07T11:29:24;7.45;;;2.20;;
23236;SDS011;11787;52.018;8.570;2023-08-07T11:31:50;6.63;;;2.40;;
23236;SDS011;11787;52.018;8.570;2023-08-07T11:34:19;6.68;;;2.20;;
23236;SDS011;11787;52.018;8.570;2023-08-07T11:36:46;8.93;;;2.67;;
23236;SDS011;11787;52.018;8.570;2023-08-07T11:39:12;6.65;;;2.38;;
23236;SDS011;11787;52.018;8.570;2023-08-07T11:41:38;5.80;;;2.45;;
23236;SDS011;11787;52.018;8.570;2023-08-07T11:44:07;7.97;;;2.95;;
23236;SDS011;11787;52.018;8.570;2023-08-07T11:46:33;9.88;;;2.40;;
23236;SDS011;11787;52.018;8.570;2023-08-07T11:48:59;5.95;;;2.33;;
23236;SDS011;11787;52.018;8.570;2023-08-07T11:51:24;7.43;;;2.78;;
23236;SDS011;11787;52.018;8.570;2023-08-07T11:53:50;10.02;;;2.45;;
23236;SDS011;11787;52.018;8.570;2023-08-07T11:56:21;5.22;;;1.60;;
23236;SDS011;11787;52.018;8.570;2023-08-07T11:58:47;6.97;;;2.78;;
23236;SDS011;11787;52.018;8.570;2023-08-07T12:01:20;5.35;;;2.08;;
23236;SDS011;11787;52.018;8.570;2023-08-07T12:03:53;6.57;;;2.45;;
23236;SDS011;11787;52.018;8.570;2023-08-07T12:06:25;6.85;;;2.08;;
23236;SDS011;11787;52.018;8.570;2023-08-07T12:08:54;10.25;;;2.75;;
23236;SDS011;11787;52.018;8.570;2023-08-07T12:11:21;8.63;;;2.20;;
23236;SDS011;11787;52.018;8.570;2023-08-07T12:13:47;9.60;;;2.17;;
23236;SDS011;11787;52.018;8.570;2023-08-07T12:16:13;5.03;;;2.17;;
23236;SDS011;11787;52.018;8.570;2023-08-07T12:18:43;5.85;;;2.33;;
23236;SDS011;11787;52.018;8.570;2023-08-07T12:21:09;6.90;;;2.10;;
23236;SDS011;11787;52.018;8.570;2023-08-07T12:28:28;6.07;;;1.90;;
23236;SDS011;11787;52.018;8.570;2023-08-07T12:30:53;4.60;;;1.85;;
23236;SDS011;11787;52.018;8.570;2023-08-07T12:33:19;6.75;;;2.28;;
23236;SDS011;11787;52.018;8.570;2023-08-07T12:35:45;4.82;;;2.20;;
23236;SDS011;11787;52.018;8.570;2023-08-07T12:38:11;8.95;;;2.50;;
23236;SDS011;11787;52.018;8.570;2023-08-07T12:40:39;6.35;;;2.10;;
23236;SDS011;11787;52.018;8.570;2023-08-07T12:43:05;4.35;;;2.00;;
23236;SDS011;11787;52.018;8.570;2023-08-07T12:45:31;7.38;;;2.00;;
23236;SDS011;11787;52.018;8.570;2023-08-07T12:47:57;6.70;;;1.90;;
23236;SDS011;11787;52.018;8.570;2023-08-07T12:50:23;6.00;;;2.20;;
23236;SDS011;11787;52.018;8.570;2023-08-07T12:52:50;6.30;;;2.15;;
23236;SDS011;11787;52.018;8.570;2023-08-07T13:05:01;4.75;;;2.03;;
23236;SDS011;11787;52.018;8.570;2023-08-07T18:43:08;4.43;;;2.10;;
23236;SDS011;11787;52.018;8.570;2023-08-07T18:45:33;4.70;;;2.25;;
23236;SDS011;11787;52.018;8.570;2023-08-07T18:47:59;4.70;;;1.65;;
23236;SDS011;11787;52.018;8.570;2023-08-07T18:50:24;3.28;;;1.90;;
23236;SDS011;11787;52.018;8.570;2023-08-07T18:52:50;4.32;;;1.73;;
23236;SDS011;11787;52.018;8.570;2023-08-07T18:55:15;3.53;;;1.60;;
23236;SDS011;11787;52.018;8.570;2023-08-07T18:57:41;6.65;;;1.50;;
23236;SDS011;11787;52.018;8.570;2023-08-07T19:00:07;5.45;;;1.40;;
23236;SDS011;11787;52.018;8.570;2023-08-07T19:02:36;3.35;;;1.77;;
23236;SDS011;11787;52.018;8.570;2023-08-07T19:05:03;3.28;;;1.55;;
23236;SDS011;11787;52.018;8.570;2023-08-07T19:07:30;3.67;;;1.65;;
23236;SDS011;11787;52.018;8.570;2023-08-07T19:09:56;4.47;;;1.65;;
23236;SDS011;11787;52.018;8.570;2023-08-07T19:12:21;4.28;;;1.45;;
23236;SDS011;11787;52.018;8.570;2023-08-07T19:14:47;2.92;;;1.50;;
23236;SDS011;11787;52.018;8.570;2023-08-07T19:17:12;3.55;;;1.60;;
23236;SDS011;11787;52.018;8.570;2023-08-07T19:19:38;3.95;;;1.45;;
23236;SDS011;11787;52.018;8.570;2023-08-07T19:22:03;4.00;;;1.70;;
23236;SDS011;11787;52.018;8.570;2023-08-07T19:24:29;2.97;;;1.35;;
23236;SDS011;11787;52.018;8.570;2023-08-07T19:26:55;5.07;;;1.50;;
23236;SDS011;11787;52.018;8.570;2023-08-07T19:29:20;3.25;;;1.30;;
23236;SDS011;11787;52.018;8.570;2023-08-07T19:31:46;5.45;;;1.85;;
23236;SDS011;11787;52.018;8.570;2023-08-07T19:34:11;4.68;;;1.70;;
23236;SDS011;11787;52.018;8.570;2023-08-07T19:36:37;3.00;;;1.15;;
23236;SDS011;11787;52.018;8.570;2023-08-07T19:39:03;3.75;;;1.55;;
23236;SDS011;11787;52.018;8.570;2023-08-07T19:41:29;4.05;;;1.45;;
23236;SDS011;11787;52.018;8.570;2023-08-07T19:43:54;2.97;;;1.45;;
23236;SDS011;11787;52.018;8.570;2023-08-07T19:46:21;5.10;;;1.65;;
23236;SDS011;11787;52.018;8.570;2023-08-07T19:48:48;2.38;;;1.50;;
23236;SDS011;11787;52.018;8.570;2023-08-07T19:51:13;7.32;;;1.88;;
23236;SDS011;11787;52.018;8.570;2023-08-07T19:53:41;4.45;;;1.80;;
23236;SDS011;11787;52.018;8.570;2023-08-07T19:56:06;3.20;;;1.58;;
23236;SDS011;11787;52.018;8.570;2023-08-07T19:58:32;4.65;;;1.63;;
23236;SDS011;11787;52.018;8.570;2023-08-07T20:00:58;4.65;;;1.55;;
23236;SDS011;11787;52.018;8.570;2023-08-07T20:03:23;6.05;;;1.88;;
23236;SDS011;11787;52.018;8.570;2023-08-07T20:05:49;3.63;;;2.00;;
23236;SDS011;11787;52.018;8.570;2023-08-07T20:08:14;4.80;;;1.90;;
23236;SDS011;11787;52.018;8.570;2023-08-07T20:10:40;4.00;;;2.03;;
23236;SDS011;11787;52.018;8.570;2023-08-07T20:13:06;7.43;;;1.77;;
23236;SDS011;11787;52.018;8.570;2023-08-07T20:15:31;3.65;;;1.60;;
23236;SDS011;11787;52.018;8.570;2023-08-07T20:17:57;4.20;;;1.65;;
23236;SDS011;11787;52.018;8.570;2023-08-07T20:20:22;3.22;;;1.60;;
23236;SDS011;11787;52.018;8.570;2023-08-07T20:22:48;4.88;;;1.95;;
23236;SDS011;11787;52.018;8.570;2023-08-07T20:25:14;6.65;;;1.70;;
23236;SDS011;11787;52.018;8.570;2023-08-07T20:27:39;3.53;;;1.65;;
23236;SDS011;11787;52.018;8.570;2023-08-07T20:30:05;4.25;;;1.77;;
23236;SDS011;11787;52.018;8.570;2023-08-07T20:32:31;3.05;;;1.50;;
23236;SDS011;11787;52.018;8.570;2023-08-07T20:34:57;4.40;;;1.58;;
23236;SDS011;11787;52.018;8.570;2023-08-07T20:37:23;4.90;;;1.70;;
23236;SDS011;11787;52.018;8.570;2023-08-07T20:39:49;6.45;;;1.90;;
23236;SDS011;11787;52.018;8.570;2023-08-07T20:42:15;3.30;;;1.58;;
23236;SDS011;11787;52.018;8.570;2023-08-07T20:44:40;3.58;;;1.50;;
23236;SDS011;11787;52.018;8.570;2023-08-07T20:47:06;2.55;;;1.40;;
23236;SDS011;11787;52.018;8.570;2023-08-07T20:49:32;3.60;;;1.70;;
23236;SDS011;11787;52.018;8.570;2023-08-07T20:51:57;4.35;;;1.88;;
23236;SDS011;11787;52.018;8.570;2023-08-07T20:54:23;4.30;;;1.77;;
23236;SDS011;11787;52.018;8.570;2023-08-07T20:56:49;6.07;;;1.95;;
23236;SDS011;11787;52.018;8.570;2023-08-07T20:59:14;3.38;;;1.70;;
23236;SDS011;11787;52.018;8.570;2023-08-07T21:01:40;3.47;;;1.85;;
23236;SDS011;11787;52.018;8.570;2023-08-07T21:04:08;5.75;;;1.92;;
23236;SDS011;11787;52.018;8.570;2023-08-07T21:06:34;4.97;;;1.92;;
23236;SDS011;11787;52.018;8.570;2023-08-07T21:09:00;5.70;;;2.03;;
23236;SDS011;11787;52.018;8.570;2023-08-07T21:11:25;4.90;;;2.17;;
23236;SDS011;11787;52.018;8.570;2023-08-07T21:13:53;4.80;;;2.08;;
23236;SDS011;11787;52.018;8.570;2023-08-07T21:16:19;4.95;;;1.98;;
23236;SDS011;11787;52.018;8.570;2023-08-07T21:18:45;4.38;;;2.00;;
23236;SDS011;11787;52.018;8.570;2023-08-07T21:21:11;5.57;;;2.28;;
23236;SDS011;11787;52.018;8.570;2023-08-07T21:23:37;5.75;;;2.08;;
23236;SDS011;11787;52.018;8.570;2023-08-07T21:26:03;5.82;;;2.22;;
23236;SDS011;11787;52.018;8.570;2023-08-07T21:28:29;8.32;;;2.10;;
23236;SDS011;11787;52.018;8.570;2023-08-07T21:30:54;5.28;;;1.92;;
23236;SDS011;11787;52.018;8.570;2023-08-07T21:33:20;4.28;;;2.13;;
23236;SDS011;11787;52.018;8.570;2023-08-07T21:35:46;4.18;;;2.08;;
23236;SDS011;11787;52.018;8.570;2023-08-07T21:38:11;5.93;;;2.20;;
23236;SDS011;11787;52.018;8.570;2023-08-07T21:40:38;4.38;;;2.00;;
23236;SDS011;11787;52.018;8.570;2023-08-07T21:43:03;3.85;;;1.98;;
23236;SDS011;11787;52.018;8.570;2023-08-07T21:45:29;4.43;;;2.10;;
23236;SDS011;11787;52.018;8.570;2023-08-07T21:47:55;3.92;;;1.95;;
23236;SDS011;11787;52.018;8.570;2023-08-07T21:50:20;5.10;;;2.47;;
23236;SDS011;11787;52.018;8.570;2023-08-07T21:52:46;5.93;;;2.35;;
23236;SDS011;11787;52.018;8.570;2023-08-07T21:55:12;5.07;;;2.05;;
23236;SDS011;11787;52.018;8.570;2023-08-07T21:57:37;5.15;;;2.30;;
23236;SDS011;11787;52.018;8.570;2023-08-07T22:00:03;7.20;;;2.85;;
23236;SDS011;11787;52.018;8.570;2023-08-07T22:04:55;3.97;;;2.38;;
23236;SDS011;11787;52.018;8.570;2023-08-07T22:07:21;4.20;;;2.42;;
23236;SDS011;11787;52.018;8.570;2023-08-07T22:09:46;5.00;;;2.65;;
23236;SDS011;11787;52.018;8.570;2023-08-07T22:12:12;4.55;;;2.40;;
23236;SDS011;11787;52.018;8.570;2023-08-07T22:14:37;5.70;;;2.85;;
23236;SDS011;11787;52.018;8.570;2023-08-07T22:17:03;5.03;;;2.50;;
23236;SDS011;11787;52.018;8.570;2023-08-07T22:19:29;7.40;;;2.72;;
23236;SDS011;11787;52.018;8.570;2023-08-07T22:21:55;6.70;;;2.95;;
23236;SDS011;11787;52.018;8.570;2023-08-07T22:24:20;5.50;;;2.65;;
23236;SDS011;11787;52.018;8.570;2023-08-07T22:26:46;4.25;;;2.20;;
23236;SDS011;11787;52.018;8.570;2023-08-07T22:29:11;6.43;;;2.60;;
23236;SDS011;11787;52.018;8.570;2023-08-07T22:31:37;4.18;;;2.75;;
23236;SDS011;11787;52.018;8.570;2023-08-07T22:34:02;5.50;;;2.63;;
23236;SDS011;11787;52.018;8.570;2023-08-07T22:36:28;4.97;;;2.70;;
23236;SDS011;11787;52.018;8.570;2023-08-07T22:38:54;6.50;;;2.80;;
23236;SDS011;11787;52.018;8.570;2023-08-07T22:41:19;5.93;;;2.70;;
23236;SDS011;11787;52.018;8.570;2023-08-07T22:43:45;7.18;;;2.78;;
23236;SDS011;11787;52.018;8.570;2023-08-07T22:46:10;6.13;;;2.97;;
23236;SDS011;11787;52.018;8.570;2023-08-07T22:48:36;7.75;;;2.83;;
23236;SDS011;11787;52.018;8.570;2023-08-07T22:51:02;4.78;;;2.75;;
23236;SDS011;11787;52.018;8.570;2023-08-07T22:53:29;10.77;;;3.00;;
23236;SDS011;11787;52.018;8.570;2023-08-07T22:55:55;5.60;;;2.78;;
23236;SDS011;11787;52.018;8.570;2023-08-07T22:58:20;5.47;;;2.60;;
23236;SDS011;11787;52.018;8.570;2023-08-07T23:00:46;5.35;;;2.60;;
23236;SDS011;11787;52.018;8.570;2023-08-07T23:03:14;5.70;;;3.25;;
23236;SDS011;11787;52.018;8.570;2023-08-07T23:05:40;4.97;;;2.50;;
23236;SDS011;11787;52.018;8.570;2023-08-07T23:08:06;3.67;;;2.35;;
23236;SDS011;11787;52.018;8.570;2023-08-07T23:10:31;6.30;;;2.53;;
23236;SDS011;11787;52.018;8.570;2023-08-07T23:12:57;4.75;;;2.80;;
23236;SDS011;11787;52.018;8.570;2023-08-07T23:15:22;5.53;;;2.85;;
23236;SDS011;11787;52.018;8.570;2023-08-07T23:17:48;5.10;;;3.30;;
23236;SDS011;11787;52.018;8.570;2023-08-07T23:20:14;4.95;;;2.72;;
23236;SDS011;11787;52.018;8.570;2023-08-07T23:22:40;4.38;;;2.47;;
23236;SDS011;11787;52.018;8.570;2023-08-07T23:25:05;5.20;;;2.78;;
23236;SDS011;11787;52.018;8.570;2023-08-07T23:27:31;4.25;;;2.63;;
23236;SDS011;11787;52.018;8.570;2023-08-07T23:29:57;5.63;;;2.78;;
23236;SDS011;11787;52.018;8.570;2023-08-07T23:32:22;3.92;;;2.67;;
23236;SDS011;11787;52.018;8.570;2023-08-07T23:34:48;6.03;;;3.00;;
23236;SDS011;11787;52.018;8.570;2023-08-07T23:37:14;4.22;;;3.00;;
23236;SDS011;11787;52.018;8.570;2023-08-07T23:39:39;6.97;;;3.22;;
23236;SDS011;11787;52.018;8.570;2023-08-07T23:42:05;6.22;;;3.25;;
23236;SDS011;11787;52.018;8.570;2023-08-07T23:44:30;4.28;;;3.13;;
23236;SDS011;11787;52.018;8.570;2023-08-07T23:46:56;7.55;;;3.65;;
23236;SDS011;11787;52.018;8.570;2023-08-07T23:49:22;5.30;;;3.47;;
23236;SDS011;11787;52.018;8.570;2023-08-07T23:51:47;6.82;;;4.10;;
23236;SDS011;11787;52.018;8.570;2023-08-07T23:54:13;5.85;;;3.70;;
23236;SDS011;11787;52.018;8.570;2023-08-07T23:56:38;6.72;;;3.90;;